createdAt,value
2022-10-31T00:01:41.252Z,11.77
2022-10-31T00:04:08.930Z,11.52
2022-10-31T00:06:37.023Z,11.43
2022-10-31T00:09:06.946Z,11.41
2022-10-31T00:11:35.216Z,11.32
2022-10-31T00:14:03.256Z,11.38
2022-10-31T00:16:31.820Z,11.52
2022-10-31T00:19:01.257Z,11.61
2022-10-31T00:21:30.027Z,11.70
2022-10-31T00:23:59.345Z,11.78
2022-10-31T00:26:28.863Z,11.83
2022-10-31T00:28:56.609Z,11.82
2022-10-31T00:31:24.709Z,11.74
2022-10-31T00:33:52.614Z,11.68
2022-10-31T00:36:21.886Z,11.67
2022-10-31T00:38:50.319Z,11.67
2022-10-31T00:41:20.189Z,11.83
2022-10-31T00:43:49.280Z,11.92
2022-10-31T00:46:17.177Z,12.00
2022-10-31T00:48:45.033Z,12.03
2022-10-31T00:51:13.033Z,12.02
2022-10-31T00:53:42.651Z,12.05
2022-10-31T00:56:10.361Z,12.01
2022-10-31T00:58:38.114Z,11.81
2022-10-31T01:01:07.538Z,11.74
2022-10-31T01:03:39.453Z,11.61
2022-10-31T01:06:13.482Z,11.64
2022-10-31T01:08:41.920Z,11.59
2022-10-31T01:11:14.710Z,11.47
2022-10-31T01:13:42.938Z,11.51
2022-10-31T01:16:13.553Z,11.49
2022-10-31T01:18:41.303Z,11.52
2022-10-31T01:21:12.000Z,11.52
2022-10-31T01:23:39.848Z,11.40
2022-10-31T01:26:10.737Z,11.48
2022-10-31T01:28:46.296Z,11.53
2022-10-31T01:31:16.035Z,11.49
2022-10-31T01:33:44.087Z,11.49
2022-10-31T01:36:18.784Z,11.50
2022-10-31T01:38:46.917Z,11.55
2022-10-31T01:41:16.596Z,11.46
2022-10-31T01:43:50.512Z,11.48
2022-10-31T01:46:23.988Z,11.56
2022-10-31T01:48:53.048Z,11.57
2022-10-31T01:51:23.293Z,11.46
2022-10-31T01:53:54.231Z,11.38
2022-10-31T01:56:23.022Z,11.46
2022-10-31T01:58:53.440Z,11.43
2022-10-31T02:01:22.944Z,11.39
2022-10-31T02:03:51.292Z,11.41
2022-10-31T02:06:29.690Z,11.52
2022-10-31T02:09:01.308Z,11.59
2022-10-31T02:11:30.430Z,11.61
2022-10-31T02:14:00.104Z,11.60
2022-10-31T02:16:29.197Z,11.65
2022-10-31T02:18:58.087Z,11.69
2022-10-31T02:21:32.476Z,11.64
2022-10-31T02:24:23.797Z,11.63
2022-10-31T02:27:00.542Z,11.67
2022-10-31T02:29:56.368Z,11.67
2022-10-31T02:32:30.026Z,11.68
2022-10-31T02:35:02.608Z,11.69
2022-10-31T02:37:40.326Z,11.71
2022-10-31T02:40:17.891Z,11.71
2022-10-31T02:43:19.760Z,11.71
2022-10-31T02:45:57.533Z,11.70
2022-10-31T02:48:31.202Z,11.69
2022-10-31T02:51:02.172Z,11.71
2022-10-31T02:53:34.285Z,11.70
2022-10-31T02:56:06.233Z,11.71
2022-10-31T02:58:38.641Z,11.72
2022-10-31T03:01:20.247Z,11.69
2022-10-31T03:04:11.212Z,11.62
2022-10-31T03:06:45.492Z,11.59
2022-10-31T03:09:21.621Z,11.60
2022-10-31T03:11:58.660Z,11.53
2022-10-31T03:14:33.193Z,11.50
2022-10-31T03:17:05.119Z,11.52
2022-10-31T03:19:40.941Z,11.56
2022-10-31T03:22:17.475Z,11.62
2022-10-31T03:24:47.310Z,11.64
2022-10-31T03:27:20.224Z,11.68
2022-10-31T03:29:51.165Z,11.72
2022-10-31T03:32:23.641Z,11.73
2022-10-31T03:34:57.800Z,11.75
2022-10-31T03:37:29.692Z,11.76
2022-10-31T03:40:00.664Z,11.78
2022-10-31T03:42:32.241Z,11.79
2022-10-31T03:45:04.391Z,11.81
2022-10-31T03:47:32.973Z,11.87
2022-10-31T03:50:03.318Z,11.86
2022-10-31T03:52:37.933Z,11.87
2022-10-31T03:55:11.604Z,11.88
2022-10-31T03:57:43.256Z,11.90
2022-10-31T04:00:15.162Z,11.93
2022-10-31T04:02:51.409Z,11.97
2022-10-31T04:05:22.775Z,11.93
2022-10-31T04:07:55.255Z,11.96
2022-10-31T04:10:31.776Z,11.94
2022-10-31T04:13:07.141Z,11.91
2022-10-31T04:15:48.111Z,11.88
2022-10-31T04:18:18.195Z,11.91
2022-10-31T04:20:49.575Z,11.84
2022-10-31T04:23:22.300Z,11.79
2022-10-31T04:25:50.757Z,11.77
2022-10-31T04:30:52.741Z,11.75
2022-10-31T04:33:20.720Z,11.74
2022-10-31T04:35:50.174Z,11.63
2022-10-31T04:38:19.677Z,11.64
2022-10-31T04:40:47.429Z,11.69
2022-10-31T04:43:35.419Z,11.70
2022-10-31T04:46:03.616Z,11.67
2022-10-31T04:48:31.665Z,11.66
2022-10-31T04:51:05.367Z,11.67
2022-10-31T04:53:33.828Z,11.56
2022-10-31T04:56:21.485Z,11.53
2022-10-31T04:58:54.226Z,11.45
2022-10-31T05:01:23.785Z,11.45
2022-10-31T05:03:51.673Z,11.45
2022-10-31T05:06:20.842Z,11.44
2022-10-31T05:08:48.549Z,11.45
2022-10-31T05:11:16.717Z,11.48
2022-10-31T05:13:45.724Z,11.40
2022-10-31T05:16:33.386Z,11.24
2022-10-31T05:19:19.708Z,11.19
2022-10-31T05:22:11.903Z,11.11
2022-10-31T05:24:39.577Z,11.05
2022-10-31T05:27:07.335Z,11.06
2022-10-31T05:29:35.813Z,11.14
2022-10-31T05:32:05.140Z,11.20
2022-10-31T05:34:55.442Z,11.24
2022-10-31T05:37:54.217Z,11.25
2022-10-31T05:40:23.541Z,11.17
2022-10-31T05:42:53.753Z,11.20
2022-10-31T05:45:23.988Z,11.23
2022-10-31T05:47:59.167Z,11.19
2022-10-31T05:50:51.287Z,11.09
2022-10-31T05:53:21.246Z,11.03
2022-10-31T05:55:49.228Z,11.04
2022-10-31T05:58:21.041Z,10.97
2022-10-31T06:00:56.050Z,10.93
2022-10-31T06:03:24.552Z,10.83
2022-10-31T06:05:59.079Z,10.79
2022-10-31T06:08:33.287Z,10.75
2022-10-31T06:11:06.219Z,10.68
2022-10-31T06:13:54.139Z,10.65
2022-10-31T06:16:31.067Z,10.64
2022-10-31T06:19:08.833Z,10.59
2022-10-31T06:21:36.597Z,10.62
2022-10-31T06:24:06.775Z,10.63
2022-10-31T06:26:57.247Z,10.69
2022-10-31T06:29:25.213Z,10.73
2022-10-31T06:32:16.224Z,10.73
2022-10-31T06:34:48.953Z,10.77
2022-10-31T06:37:17.537Z,10.84
2022-10-31T06:39:49.600Z,10.76
2022-10-31T06:42:18.555Z,10.81
2022-10-31T06:44:46.416Z,10.83
2022-10-31T06:47:32.403Z,10.94
2022-10-31T06:50:10.578Z,11.03
2022-10-31T06:52:38.768Z,11.07
2022-10-31T06:55:08.519Z,11.11
2022-10-31T06:57:37.076Z,11.11
2022-10-31T07:00:05.353Z,11.15
2022-10-31T07:02:44.101Z,11.17
2022-10-31T07:05:13.116Z,11.24
2022-10-31T07:07:58.104Z,11.31
2022-10-31T07:10:34.304Z,11.37
2022-10-31T07:13:07.176Z,11.39
2022-10-31T07:15:39.804Z,11.46
2022-10-31T07:18:08.775Z,11.46
2022-10-31T07:20:37.424Z,11.53
2022-10-31T07:23:06.016Z,11.65
2022-10-31T07:25:35.627Z,11.71
2022-10-31T07:28:08.931Z,11.72
2022-10-31T07:30:37.219Z,11.77
2022-10-31T07:33:06.293Z,11.80
2022-10-31T07:35:54.021Z,11.84
2022-10-31T07:38:25.116Z,11.85
2022-10-31T07:40:54.800Z,11.95
2022-10-31T07:43:23.817Z,11.99
2022-10-31T07:46:10.119Z,12.01
2022-10-31T07:49:16.018Z,12.06
2022-10-31T07:52:02.381Z,12.08
2022-10-31T07:54:56.157Z,12.13
2022-10-31T07:57:30.609Z,12.14
2022-10-31T08:00:01.778Z,12.20
2022-10-31T08:02:31.020Z,12.27
2022-10-31T08:05:31.284Z,12.50
2022-10-31T08:08:19.372Z,12.40
2022-10-31T08:10:49.106Z,12.37
2022-10-31T08:13:18.129Z,12.36
2022-10-31T08:15:51.708Z,12.47
2022-10-31T08:18:24.592Z,12.46
2022-10-31T08:20:53.286Z,12.34
2022-10-31T08:23:20.969Z,12.31
2022-10-31T08:25:49.138Z,12.38
2022-10-31T08:28:18.308Z,12.39
2022-10-31T08:30:48.938Z,12.46
2022-10-31T08:33:39.405Z,12.45
2022-10-31T08:36:25.737Z,12.47
2022-10-31T08:38:59.143Z,12.57
2022-10-31T08:41:30.099Z,12.60
2022-10-31T08:44:00.389Z,12.74
2022-10-31T08:46:28.074Z,12.83
2022-10-31T08:48:56.024Z,12.95
2022-10-31T08:51:24.822Z,13.21
2022-10-31T08:53:56.272Z,13.19
2022-10-31T08:56:42.472Z,13.12
2022-10-31T08:59:29.901Z,13.22
2022-10-31T09:02:33.151Z,13.30
2022-10-31T09:05:02.347Z,13.39
2022-10-31T09:07:30.973Z,13.45
2022-10-31T09:09:59.708Z,13.53
2022-10-31T09:12:29.155Z,13.63
2022-10-31T09:15:24.238Z,13.70
2022-10-31T09:18:14.956Z,13.72
2022-10-31T09:20:52.443Z,13.77
2022-10-31T09:23:22.079Z,13.85
2022-10-31T09:25:51.585Z,13.99
2022-10-31T09:28:34.513Z,13.94
2022-10-31T09:31:10.061Z,13.99
2022-10-31T09:33:55.792Z,14.10
2022-10-31T09:36:32.417Z,14.15
2022-10-31T09:39:00.112Z,14.32
2022-10-31T09:41:39.308Z,14.29
2022-10-31T09:44:21.290Z,14.32
2022-10-31T09:46:58.879Z,14.33
2022-10-31T09:49:55.796Z,14.38
2022-10-31T09:52:28.714Z,14.38
2022-10-31T09:55:02.858Z,14.40
2022-10-31T09:57:34.802Z,14.45
2022-10-31T10:00:05.770Z,14.55
2022-10-31T10:02:48.569Z,14.60
2022-10-31T10:05:21.975Z,14.59
2022-10-31T10:08:05.487Z,14.61
2022-10-31T10:10:55.895Z,14.71
2022-10-31T10:14:01.075Z,14.81
2022-10-31T10:16:43.059Z,14.84
2022-10-31T10:19:27.747Z,14.92
2022-10-31T10:22:04.294Z,14.99
2022-10-31T10:24:46.945Z,15.09
2022-10-31T10:27:25.903Z,15.12
2022-10-31T10:30:03.690Z,15.15
2022-10-31T10:32:42.424Z,15.20
2022-10-31T10:35:21.191Z,15.28
2022-10-31T10:37:52.784Z,15.29
2022-10-31T10:40:23.646Z,15.38
2022-10-31T10:43:19.172Z,15.36
2022-10-31T10:46:25.820Z,15.39
2022-10-31T10:49:00.294Z,15.44
2022-10-31T10:54:45.160Z,15.57
2022-10-31T10:57:45.293Z,15.62
2022-10-31T11:00:22.689Z,15.67
2022-10-31T11:02:51.846Z,15.81
2022-10-31T11:05:28.111Z,15.80
2022-10-31T11:07:57.520Z,15.77
2022-10-31T11:10:27.784Z,15.81
2022-10-31T11:13:04.905Z,15.90
2022-10-31T11:15:37.624Z,15.86
2022-10-31T11:18:06.177Z,15.85
2022-10-31T11:20:37.122Z,15.93
2022-10-31T11:23:18.396Z,16.05
2022-10-31T11:25:56.451Z,16.06
2022-10-31T11:28:25.361Z,16.03
2022-10-31T11:30:55.380Z,16.07
2022-10-31T11:33:29.873Z,16.13
2022-10-31T11:36:00.830Z,16.20
2022-10-31T11:38:35.762Z,16.33
2022-10-31T11:41:13.672Z,16.40
2022-10-31T11:43:51.547Z,16.39
2022-10-31T11:46:24.533Z,16.42
2022-10-31T11:48:56.021Z,16.43
2022-10-31T11:51:25.561Z,16.37
2022-10-31T11:54:00.086Z,16.50
2022-10-31T11:56:40.388Z,16.57
2022-10-31T11:59:19.072Z,16.47
2022-10-31T12:01:50.361Z,16.54
2022-10-31T12:04:19.036Z,16.52
2022-10-31T12:06:48.268Z,16.51
2022-10-31T12:09:23.028Z,16.47
2022-10-31T12:12:06.060Z,16.44
2022-10-31T12:14:44.568Z,16.33
2022-10-31T12:17:17.828Z,16.30
2022-10-31T12:19:55.338Z,16.31
2022-10-31T12:22:39.576Z,16.39
2022-10-31T12:25:35.868Z,16.32
2022-10-31T12:28:23.965Z,16.38
2022-10-31T12:31:05.220Z,16.34
2022-10-31T12:33:49.123Z,16.30
2022-10-31T12:36:31.455Z,16.33
2022-10-31T12:39:52.093Z,16.35
2022-10-31T12:42:48.718Z,16.31
2022-10-31T12:45:42.180Z,16.27
2022-10-31T12:48:24.288Z,16.26
2022-10-31T12:51:01.766Z,16.24
2022-10-31T12:53:53.799Z,16.28
2022-10-31T12:56:53.134Z,16.31
2022-10-31T12:59:32.595Z,16.33
2022-10-31T13:02:08.893Z,16.30
2022-10-31T13:04:45.194Z,16.35
2022-10-31T13:07:16.367Z,16.22
2022-10-31T13:09:48.400Z,16.19
2022-10-31T13:12:19.969Z,16.16
2022-10-31T13:14:54.211Z,16.13
2022-10-31T13:17:31.283Z,16.20
2022-10-31T13:20:15.489Z,16.13
2022-10-31T13:22:46.137Z,16.10
2022-10-31T13:25:19.476Z,16.12
2022-10-31T13:27:53.083Z,16.09
2022-10-31T13:30:24.184Z,16.05
2022-10-31T13:32:55.914Z,16.04
2022-10-31T13:35:31.477Z,16.07
2022-10-31T13:38:08.981Z,16.09
2022-10-31T13:40:58.320Z,16.05
2022-10-31T13:43:35.509Z,16.06
2022-10-31T13:46:04.639Z,16.15
2022-10-31T13:48:42.294Z,16.24
2022-10-31T13:51:12.599Z,16.39
2022-10-31T13:53:44.736Z,16.50
2022-10-31T13:56:20.033Z,16.63
2022-10-31T13:59:05.259Z,16.81
2022-10-31T14:01:35.733Z,16.97
2022-10-31T14:04:13.802Z,17.03
2022-10-31T14:06:51.655Z,17.22
2022-10-31T14:09:24.027Z,17.08
2022-10-31T14:11:52.898Z,17.05
2022-10-31T14:14:22.708Z,17.06
2022-10-31T14:16:57.358Z,17.11
2022-10-31T14:19:25.575Z,17.02
2022-10-31T14:21:53.379Z,17.13
2022-10-31T14:24:37.944Z,17.12
2022-10-31T14:27:22.786Z,16.89
2022-10-31T14:29:50.826Z,16.71
2022-10-31T14:32:24.677Z,16.48
2022-10-31T14:34:58.098Z,16.29
2022-10-31T14:37:40.805Z,16.14
2022-10-31T14:40:26.967Z,16.03
2022-10-31T14:43:18.060Z,15.89
2022-10-31T14:45:54.375Z,15.81
2022-10-31T14:48:43.794Z,15.79
2022-10-31T14:51:15.303Z,15.81
2022-10-31T14:53:48.792Z,15.83
2022-10-31T14:56:23.212Z,15.82
2022-10-31T14:58:51.636Z,15.75
2022-10-31T15:01:25.445Z,15.73
2022-10-31T15:04:21.936Z,15.75
2022-10-31T15:06:48.179Z,15.65
2022-10-31T15:09:26.554Z,15.61
2022-10-31T15:11:54.395Z,15.61
2022-10-31T15:14:27.350Z,15.58
2022-10-31T15:16:55.530Z,15.58
2022-10-31T15:19:27.398Z,15.61
2022-10-31T15:21:58.078Z,15.58
2022-10-31T15:24:30.356Z,15.56
2022-10-31T15:27:03.845Z,15.55
2022-10-31T15:29:33.609Z,15.52
2022-10-31T15:32:03.649Z,15.57
2022-10-31T15:34:40.014Z,15.61
2022-10-31T15:37:12.881Z,15.56
2022-10-31T15:39:40.812Z,15.51
2022-10-31T15:42:20.352Z,15.52
2022-10-31T15:44:51.835Z,15.60
2022-10-31T15:47:21.802Z,15.70
2022-10-31T15:49:53.709Z,15.70
2022-10-31T15:52:31.133Z,15.64
2022-10-31T15:55:02.061Z,15.58
2022-10-31T15:57:31.212Z,15.56
2022-10-31T15:59:59.603Z,15.47
2022-10-31T16:02:29.041Z,15.43
2022-10-31T16:05:00.158Z,15.48
2022-10-31T16:07:28.558Z,15.31
2022-10-31T16:09:59.425Z,15.43
2022-10-31T16:12:33.895Z,15.25
2022-10-31T16:15:01.653Z,15.15
2022-10-31T16:17:30.093Z,15.12
2022-10-31T16:20:01.785Z,15.06
2022-10-31T16:22:32.072Z,14.95
2022-10-31T16:25:06.825Z,14.87
2022-10-31T16:27:37.188Z,14.88
2022-10-31T16:30:26.506Z,14.87
2022-10-31T16:32:59.000Z,14.80
2022-10-31T16:35:29.245Z,14.71
2022-10-31T16:37:57.185Z,14.70
2022-10-31T16:40:24.929Z,14.73
2022-10-31T16:42:53.385Z,14.70
2022-10-31T16:45:23.188Z,14.73
2022-10-31T16:47:51.812Z,14.76
2022-10-31T16:50:23.914Z,14.78
2022-10-31T16:55:47.248Z,14.86
2022-10-31T16:58:19.435Z,14.72
2022-10-31T17:00:47.599Z,14.64
2022-10-31T17:03:15.389Z,14.52
2022-10-31T17:05:44.589Z,14.49
2022-10-31T17:08:12.657Z,14.49
2022-10-31T17:10:41.544Z,14.42
2022-10-31T17:13:15.393Z,14.32
2022-10-31T17:15:46.031Z,14.26
2022-10-31T17:18:14.329Z,14.18
2022-10-31T17:20:44.227Z,14.13
2022-10-31T17:23:13.266Z,14.24
2022-10-31T17:25:41.789Z,14.26
2022-10-31T17:28:13.498Z,14.14
2022-10-31T17:30:42.364Z,14.10
2022-10-31T17:33:12.854Z,14.09
2022-10-31T17:35:40.621Z,14.07
2022-10-31T17:38:09.891Z,14.03
2022-10-31T17:40:38.855Z,14.08
2022-10-31T17:43:06.846Z,14.13
2022-10-31T17:45:34.504Z,14.13
2022-10-31T17:48:02.351Z,14.15
2022-10-31T17:50:29.954Z,14.13
2022-10-31T17:52:59.794Z,14.05
2022-10-31T17:55:32.890Z,13.99
2022-10-31T17:58:04.954Z,13.91
2022-10-31T18:00:34.588Z,13.85
2022-10-31T18:03:03.170Z,13.89
2022-10-31T18:05:31.053Z,13.96
2022-10-31T18:08:03.676Z,13.96
2022-10-31T18:10:33.400Z,13.96
2022-10-31T18:13:01.336Z,13.98
2022-10-31T18:15:29.396Z,13.96
2022-10-31T18:17:56.969Z,13.92
2022-10-31T18:20:24.833Z,13.87
2022-10-31T18:22:52.412Z,13.89
2022-10-31T18:25:20.050Z,13.91
2022-10-31T18:27:49.209Z,13.85
2022-10-31T18:30:18.021Z,13.90
2022-10-31T18:32:45.691Z,13.81
2022-10-31T18:35:13.333Z,13.76
2022-10-31T18:37:40.977Z,13.77
2022-10-31T18:40:09.668Z,13.84
2022-10-31T18:42:38.555Z,13.98
2022-10-31T18:45:17.469Z,13.94
2022-10-31T18:47:52.437Z,13.92
2022-10-31T18:50:20.420Z,14.02
2022-10-31T18:52:48.056Z,14.11
2022-10-31T18:55:16.086Z,14.07
2022-10-31T18:57:44.017Z,14.19
2022-10-31T19:00:14.829Z,14.15
2022-10-31T19:02:42.448Z,14.07
2022-10-31T19:05:10.364Z,14.06
2022-10-31T19:07:38.016Z,14.06
2022-10-31T19:10:06.623Z,14.03
2022-10-31T19:12:34.480Z,14.09
2022-10-31T19:15:02.303Z,14.08
2022-10-31T19:17:31.996Z,14.07
2022-10-31T19:19:59.843Z,14.11
2022-10-31T19:22:27.901Z,14.14
2022-10-31T19:24:55.527Z,14.05
2022-10-31T19:27:23.197Z,13.86
2022-10-31T19:29:51.057Z,13.76
2022-10-31T19:32:18.736Z,13.78
2022-10-31T19:34:47.757Z,13.76
2022-10-31T19:37:15.656Z,13.71
2022-10-31T19:39:44.434Z,13.51
2022-10-31T19:42:12.933Z,13.46
2022-10-31T19:44:40.562Z,13.48
2022-10-31T19:47:08.568Z,13.68
2022-10-31T19:49:36.645Z,13.72
2022-10-31T19:52:06.333Z,13.69
2022-10-31T19:54:34.236Z,13.76
2022-10-31T19:57:01.860Z,13.69
2022-10-31T19:59:29.536Z,13.64
2022-10-31T20:01:57.208Z,13.66
2022-10-31T20:04:34.828Z,13.51
2022-10-31T20:07:02.717Z,13.41
2022-10-31T20:09:31.929Z,13.40
2022-10-31T20:11:59.659Z,13.36
2022-10-31T20:14:27.985Z,13.24
2022-10-31T20:16:55.839Z,13.06
2022-10-31T20:19:24.102Z,12.96
2022-10-31T20:21:51.750Z,12.92
2022-10-31T20:24:20.006Z,13.03
2022-10-31T20:26:49.218Z,13.06
2022-10-31T20:29:17.263Z,13.16
2022-10-31T20:31:46.390Z,13.35
2022-10-31T20:34:14.668Z,13.16
2022-10-31T20:36:42.477Z,12.94
2022-10-31T20:39:10.963Z,12.91
2022-10-31T20:41:39.422Z,12.87
2022-10-31T20:44:08.767Z,12.80
2022-10-31T20:46:36.581Z,12.82
2022-10-31T20:49:04.668Z,12.77
2022-10-31T20:51:32.517Z,12.72
2022-10-31T20:54:01.297Z,12.72
2022-10-31T20:56:29.911Z,12.76
2022-10-31T20:58:58.876Z,12.71
2022-10-31T21:01:30.209Z,12.67
2022-10-31T21:03:58.877Z,12.62
2022-10-31T21:06:27.098Z,12.60
2022-10-31T21:08:55.510Z,12.60
2022-10-31T21:11:25.223Z,12.61
2022-10-31T21:13:53.580Z,12.61
2022-10-31T21:16:23.726Z,12.61
2022-10-31T21:18:53.984Z,12.66
2022-10-31T21:21:29.116Z,12.70
2022-10-31T21:24:02.206Z,12.76
2022-10-31T21:26:33.305Z,12.78
2022-10-31T21:29:01.210Z,12.76
2022-10-31T21:31:29.257Z,12.70
2022-10-31T21:33:58.694Z,12.75
2022-10-31T21:36:27.038Z,12.77
2022-10-31T21:38:56.210Z,12.77
2022-10-31T21:41:26.241Z,12.79
2022-10-31T21:43:55.235Z,12.80
2022-10-31T21:46:25.239Z,12.79
2022-10-31T21:48:53.475Z,12.84
2022-10-31T21:51:23.926Z,12.82
2022-10-31T21:54:09.853Z,12.85
2022-10-31T21:56:37.975Z,12.82
2022-10-31T21:59:06.391Z,12.80
2022-10-31T22:01:34.933Z,12.83
2022-10-31T22:04:03.055Z,12.86
2022-10-31T22:06:32.473Z,12.91
2022-10-31T22:09:01.721Z,12.86
2022-10-31T22:11:29.733Z,12.87
2022-10-31T22:14:00.107Z,12.80
2022-10-31T22:16:29.321Z,12.73
2022-10-31T22:18:58.345Z,12.69
2022-10-31T22:21:27.870Z,12.74
2022-10-31T22:24:01.890Z,12.83
2022-10-31T22:26:33.066Z,12.84
2022-10-31T22:29:02.785Z,12.72
2022-10-31T22:31:31.928Z,12.66
2022-10-31T22:34:00.018Z,12.59
2022-10-31T22:36:29.007Z,12.55
2022-10-31T22:38:58.145Z,12.58
2022-10-31T22:41:27.774Z,12.61
2022-10-31T22:43:56.283Z,12.63
2022-10-31T22:46:25.872Z,12.68
2022-10-31T22:48:55.902Z,12.64
2022-10-31T22:51:26.183Z,12.64
2022-10-31T22:53:56.472Z,12.68
2022-10-31T22:56:28.297Z,12.75
2022-10-31T22:58:56.384Z,12.72
2022-10-31T23:01:27.298Z,12.71
2022-10-31T23:03:55.383Z,12.75
2022-10-31T23:06:25.306Z,12.75
2022-10-31T23:08:54.156Z,12.77
2022-10-31T23:11:23.890Z,12.78
2022-10-31T23:14:12.148Z,12.77
2022-10-31T23:16:44.272Z,12.78
2022-10-31T23:19:14.132Z,12.76
2022-10-31T23:21:59.769Z,12.76
2022-10-31T23:24:30.943Z,12.76
2022-10-31T23:27:11.137Z,12.85
2022-10-31T23:29:47.859Z,12.77
2022-10-31T23:32:19.479Z,12.80
2022-10-31T23:34:48.501Z,12.78
2022-10-31T23:37:17.540Z,12.82
2022-10-31T23:39:45.390Z,12.87
2022-10-31T23:42:13.688Z,12.95
2022-10-31T23:44:41.540Z,13.00
2022-10-31T23:47:11.010Z,13.03
2022-10-31T23:49:38.974Z,13.01
2022-10-31T23:52:07.513Z,13.07
2022-10-31T23:54:35.711Z,13.12
2022-10-31T23:57:04.312Z,13.13
2022-10-31T23:59:32.036Z,13.10
